createdAt,value
2018-10-16T00:00:58.088Z,12.37
2018-10-16T00:03:26.758Z,12.20
2018-10-16T00:05:55.043Z,13.58
2018-10-16T00:08:23.341Z,12.37
2018-10-16T00:10:51.700Z,12.30
2018-10-16T00:13:20.098Z,12.73
2018-10-16T00:15:48.386Z,13.90
2018-10-16T00:18:16.988Z,13.00
2018-10-16T00:20:45.330Z,13.60
2018-10-16T00:23:13.770Z,12.60
2018-10-16T00:25:46.036Z,13.00
2018-10-16T00:28:14.519Z,12.13
2018-10-16T00:30:42.877Z,12.83
2018-10-16T00:33:11.358Z,14.50
2018-10-16T00:35:39.646Z,12.53
2018-10-16T00:40:54.015Z,13.57
2018-10-16T00:43:22.403Z,12.68
2018-10-16T00:45:50.888Z,12.37
2018-10-16T00:48:19.256Z,13.33
2018-10-16T00:50:47.730Z,12.47
2018-10-16T00:53:16.633Z,11.90
2018-10-16T00:55:44.915Z,13.50
2018-10-16T00:58:13.461Z,13.07
2018-10-16T01:00:41.740Z,13.67
2018-10-16T01:03:10.185Z,12.68
2018-10-16T01:05:38.502Z,13.30
2018-10-16T01:08:06.846Z,13.80
2018-10-16T01:10:35.188Z,12.67
2018-10-16T01:13:04.057Z,13.40
2018-10-16T01:15:32.401Z,14.13
2018-10-16T01:18:00.861Z,13.63
2018-10-16T01:20:29.264Z,13.15
2018-10-16T01:22:57.663Z,13.50
2018-10-16T01:25:25.964Z,13.80
2018-10-16T01:27:54.250Z,13.13
2018-10-16T01:30:22.739Z,13.13
2018-10-16T01:32:51.075Z,13.13
2018-10-16T01:35:19.363Z,13.60
2018-10-16T01:37:47.664Z,14.40
2018-10-16T01:40:16.069Z,14.47
2018-10-16T01:42:44.394Z,14.40
2018-10-16T01:45:12.701Z,15.10
2018-10-16T01:47:41.028Z,14.28
2018-10-16T01:50:09.609Z,14.45
2018-10-16T01:52:38.045Z,13.95
2018-10-16T01:55:06.317Z,14.85
2018-10-16T01:57:34.742Z,14.18
2018-10-16T02:00:03.023Z,13.60
2018-10-16T02:02:31.649Z,14.23
2018-10-16T02:04:59.985Z,13.07
2018-10-16T02:07:28.291Z,14.00
2018-10-16T02:09:56.633Z,14.98
2018-10-16T02:12:25.092Z,15.40
2018-10-16T02:14:53.497Z,14.73
2018-10-16T02:17:21.767Z,14.40
2018-10-16T02:19:50.200Z,14.20
2018-10-16T02:22:18.608Z,13.37
2018-10-16T02:24:47.119Z,14.15
2018-10-16T02:27:15.419Z,14.93
2018-10-16T02:29:43.769Z,13.70
2018-10-16T02:32:12.068Z,14.13
2018-10-16T02:34:40.654Z,13.67
2018-10-16T02:37:09.655Z,13.68
2018-10-16T02:39:37.999Z,12.53
2018-10-16T02:42:06.870Z,13.77
2018-10-16T02:44:35.221Z,14.70
2018-10-16T02:47:11.472Z,14.55
2018-10-16T02:49:48.763Z,13.90
2018-10-16T02:52:17.107Z,13.73
2018-10-16T02:54:45.425Z,15.43
2018-10-16T02:57:13.767Z,16.02
2018-10-16T02:59:42.105Z,14.63
2018-10-16T03:02:10.517Z,14.18
2018-10-16T03:04:38.842Z,15.08
2018-10-16T03:07:07.269Z,15.03
2018-10-16T03:09:35.788Z,13.40
2018-10-16T03:12:04.608Z,14.60
2018-10-16T03:14:32.888Z,15.58
2018-10-16T03:17:01.184Z,14.63
2018-10-16T03:19:29.505Z,14.78
2018-10-16T03:21:57.859Z,15.27
2018-10-16T03:24:26.133Z,16.97
2018-10-16T03:26:54.433Z,14.03
2018-10-16T03:29:22.778Z,15.05
2018-10-16T03:31:51.233Z,14.78
2018-10-16T03:34:19.540Z,13.93
2018-10-16T03:36:47.968Z,14.98
2018-10-16T03:39:16.287Z,14.53
2018-10-16T03:41:44.568Z,14.65
2018-10-16T03:44:14.002Z,15.30
2018-10-16T03:46:42.315Z,15.25
2018-10-16T03:49:11.421Z,13.53
2018-10-16T03:51:40.682Z,13.83
2018-10-16T03:54:09.581Z,15.50
2018-10-16T03:56:38.052Z,14.07
2018-10-16T03:59:06.637Z,14.53
2018-10-16T04:01:35.009Z,14.58
2018-10-16T04:04:03.355Z,14.40
2018-10-16T04:06:32.451Z,15.25
2018-10-16T04:09:00.746Z,14.90
2018-10-16T04:11:29.376Z,16.15
2018-10-16T04:13:57.781Z,14.60
2018-10-16T04:16:26.173Z,14.33
2018-10-16T04:18:54.437Z,16.40
2018-10-16T04:21:22.752Z,14.60
2018-10-16T04:23:51.079Z,15.20
2018-10-16T04:26:19.428Z,14.35
2018-10-16T04:28:47.746Z,14.45
2018-10-16T04:31:16.151Z,14.15
2018-10-16T04:33:44.730Z,15.15
2018-10-16T04:36:13.458Z,13.72
2018-10-16T04:38:41.770Z,14.73
2018-10-16T04:41:10.085Z,14.78
2018-10-16T04:43:38.463Z,14.83
2018-10-16T04:46:06.679Z,14.65
2018-10-16T04:48:34.986Z,13.88
2018-10-16T04:51:03.672Z,14.83
2018-10-16T04:53:32.153Z,14.05
2018-10-16T04:56:00.444Z,14.30
2018-10-16T04:58:28.759Z,15.65
2018-10-16T05:00:57.117Z,15.83
2018-10-16T05:03:25.532Z,15.15
2018-10-16T05:05:53.996Z,15.38
2018-10-16T05:08:23.031Z,14.70
2018-10-16T05:10:51.391Z,14.78
2018-10-16T05:13:19.844Z,15.35
2018-10-16T05:15:48.283Z,16.85
2018-10-16T05:18:16.611Z,15.35
2018-10-16T05:20:45.230Z,15.20
2018-10-16T05:23:13.543Z,14.15
2018-10-16T05:25:41.832Z,14.70
2018-10-16T05:28:10.577Z,14.98
2018-10-16T05:30:38.868Z,17.32
2018-10-16T05:33:07.157Z,16.05
2018-10-16T05:35:35.609Z,16.17
2018-10-16T05:38:03.940Z,16.20
2018-10-16T05:40:32.225Z,15.98
2018-10-16T05:43:00.799Z,16.75
2018-10-16T05:45:31.350Z,16.70
2018-10-16T05:47:59.662Z,16.20
2018-10-16T05:50:27.973Z,16.62
2018-10-16T05:52:56.340Z,16.50
2018-10-16T05:55:24.716Z,16.65
2018-10-16T05:57:53.082Z,16.12
2018-10-16T06:00:35.200Z,16.35
2018-10-16T06:03:03.828Z,15.10
2018-10-16T06:05:32.313Z,15.65
2018-10-16T06:08:00.611Z,16.05
2018-10-16T06:10:28.932Z,15.72
2018-10-16T06:12:57.244Z,15.10
2018-10-16T06:15:25.655Z,16.12
2018-10-16T06:17:54.249Z,15.90
2018-10-16T06:20:22.596Z,14.75
2018-10-16T06:22:50.928Z,18.87
2018-10-16T06:25:19.243Z,22.07
2018-10-16T06:27:47.688Z,16.75
2018-10-16T06:30:16.294Z,16.87
2018-10-16T06:32:44.646Z,16.67
2018-10-16T06:35:13.076Z,15.55
2018-10-16T06:37:41.424Z,16.57
2018-10-16T06:40:10.493Z,16.35
2018-10-16T06:42:39.318Z,16.30
2018-10-16T06:45:09.381Z,15.60
2018-10-16T06:47:37.802Z,15.40
2018-10-16T06:50:07.761Z,15.95
2018-10-16T06:52:42.507Z,15.15
2018-10-16T06:55:10.851Z,15.40
2018-10-16T06:57:39.256Z,16.40
2018-10-16T07:00:08.122Z,17.20
2018-10-16T07:02:36.357Z,16.10
2018-10-16T07:05:05.850Z,16.87
2018-10-16T07:07:34.199Z,15.90
2018-10-16T07:10:02.589Z,16.35
2018-10-16T07:12:30.886Z,16.07
2018-10-16T07:14:59.208Z,16.80
2018-10-16T07:17:27.547Z,16.93
2018-10-16T07:19:55.844Z,15.43
2018-10-16T07:22:24.137Z,16.37
2018-10-16T07:24:52.495Z,16.23
2018-10-16T07:27:20.768Z,16.48
2018-10-16T07:29:49.305Z,16.10
2018-10-16T07:32:17.593Z,21.05
2018-10-16T07:34:45.992Z,16.62
2018-10-16T07:37:14.420Z,16.50
2018-10-16T07:39:42.861Z,15.97
2018-10-16T07:42:11.320Z,17.25
2018-10-16T07:44:39.650Z,18.98
2018-10-16T07:47:08.443Z,17.37
2018-10-16T07:49:36.956Z,16.97
2018-10-16T07:52:05.263Z,22.50
2018-10-16T07:54:33.701Z,18.67
2018-10-16T07:57:02.206Z,15.37
2018-10-16T07:59:30.499Z,16.63
2018-10-16T08:01:59.611Z,15.60
2018-10-16T08:04:27.883Z,15.67
2018-10-16T08:06:56.450Z,15.53
2018-10-16T08:09:25.054Z,15.23
2018-10-16T08:11:53.420Z,14.13
2018-10-16T08:14:22.083Z,14.90
2018-10-16T08:16:51.001Z,14.83
2018-10-16T08:19:19.292Z,16.50
2018-10-16T08:21:48.222Z,22.03
2018-10-16T08:24:16.535Z,14.70
2018-10-16T08:26:45.117Z,14.83
2018-10-16T08:29:13.365Z,13.87
2018-10-16T08:31:41.884Z,12.37
2018-10-16T08:34:10.377Z,15.30
2018-10-16T08:36:38.900Z,15.10
2018-10-16T08:39:16.976Z,16.03
2018-10-16T08:42:53.996Z,14.03
2018-10-16T08:45:33.966Z,17.77
2018-10-16T08:48:13.703Z,14.40
2018-10-16T08:50:53.169Z,14.07
2018-10-16T08:53:27.912Z,15.13
2018-10-16T08:55:56.352Z,14.17
2018-10-16T08:58:24.809Z,14.90
2018-10-16T09:00:53.138Z,16.33
2018-10-16T09:03:21.416Z,15.70
2018-10-16T09:05:49.704Z,16.50
2018-10-16T09:08:18.047Z,16.33
2018-10-16T09:10:46.609Z,15.30
2018-10-16T09:13:15.072Z,15.90
2018-10-16T09:15:43.315Z,15.67
2018-10-16T09:18:11.628Z,15.43
2018-10-16T09:20:40.034Z,15.30
2018-10-16T09:23:08.349Z,16.80
2018-10-16T09:25:36.628Z,13.67
2018-10-16T09:28:05.856Z,14.70
2018-10-16T09:30:34.152Z,14.63
2018-10-16T09:33:02.507Z,14.50
2018-10-16T09:35:30.822Z,13.67
2018-10-16T09:37:59.214Z,15.90
2018-10-16T09:40:27.484Z,15.33
2018-10-16T09:42:55.826Z,16.93
2018-10-16T09:45:24.172Z,13.77
2018-10-16T09:47:52.716Z,13.43
2018-10-16T09:50:21.018Z,13.90
2018-10-16T09:52:49.366Z,13.90
2018-10-16T09:55:17.605Z,14.07
2018-10-16T09:57:46.030Z,12.90
2018-10-16T10:00:19.660Z,13.27
2018-10-16T10:02:47.987Z,16.00
2018-10-16T10:05:16.409Z,13.60
2018-10-16T10:07:44.890Z,14.90
2018-10-16T10:10:13.243Z,14.50
2018-10-16T10:12:41.711Z,12.93
2018-10-16T10:15:10.135Z,14.60
2018-10-16T10:17:39.395Z,12.03
2018-10-16T10:20:08.370Z,12.10
2018-10-16T10:22:36.636Z,11.03
2018-10-16T10:25:05.682Z,11.10
2018-10-16T10:27:34.089Z,12.63
2018-10-16T10:30:02.993Z,12.07
2018-10-16T10:32:31.656Z,12.07
2018-10-16T10:35:00.451Z,11.47
2018-10-16T10:37:28.853Z,10.13
2018-10-16T10:39:57.243Z,10.60
2018-10-16T10:42:25.789Z,9.70
2018-10-16T10:44:54.127Z,10.77
2018-10-16T10:47:22.584Z,12.13
2018-10-16T10:49:51.168Z,11.87
2018-10-16T10:52:19.530Z,12.93
2018-10-16T10:54:48.205Z,11.33
2018-10-16T10:57:16.566Z,11.43
2018-10-16T10:59:44.873Z,10.73
2018-10-16T11:02:13.268Z,11.23
2018-10-16T11:04:41.593Z,10.47
2018-10-16T11:07:09.889Z,10.33
2018-10-16T11:09:38.200Z,11.00
2018-10-16T11:12:06.714Z,10.40
2018-10-16T11:14:34.985Z,10.17
2018-10-16T11:17:03.327Z,10.40
2018-10-16T11:19:31.684Z,10.20
2018-10-16T11:22:01.130Z,12.13
2018-10-16T11:24:31.015Z,11.70
2018-10-16T11:26:59.381Z,11.63
2018-10-16T11:29:27.759Z,9.87
2018-10-16T11:31:56.106Z,10.63
2018-10-16T11:34:24.374Z,10.43
2018-10-16T11:36:52.705Z,10.27
2018-10-16T11:39:21.232Z,9.57
2018-10-16T11:41:49.527Z,9.23
2018-10-16T11:44:17.956Z,9.60
2018-10-16T11:46:46.277Z,9.47
2018-10-16T11:49:14.744Z,9.50
2018-10-16T11:51:43.040Z,9.30
2018-10-16T11:54:11.354Z,9.20
2018-10-16T11:56:39.844Z,9.53
2018-10-16T11:59:08.234Z,11.30
2018-10-16T12:01:36.911Z,10.10
2018-10-16T12:04:08.053Z,10.03
2018-10-16T12:06:36.400Z,9.17
2018-10-16T12:09:07.758Z,12.53
2018-10-16T12:11:36.317Z,9.80
2018-10-16T12:14:05.454Z,9.33
2018-10-16T12:16:37.564Z,9.20
2018-10-16T12:19:10.937Z,8.80
2018-10-16T12:21:39.378Z,9.70
2018-10-16T12:24:07.778Z,8.73
2018-10-16T12:26:38.571Z,8.67
2018-10-16T12:29:07.117Z,8.53
2018-10-16T12:31:35.353Z,8.87
2018-10-16T12:34:03.746Z,8.17
2018-10-16T12:36:32.183Z,8.40
2018-10-16T12:39:00.706Z,8.40
2018-10-16T12:41:29.091Z,8.47
2018-10-16T12:43:57.423Z,8.00
2018-10-16T12:46:25.703Z,8.00
2018-10-16T12:48:53.979Z,8.10
2018-10-16T12:51:22.432Z,7.50
2018-10-16T12:53:51.747Z,8.90
2018-10-16T12:56:20.199Z,6.90
2018-10-16T12:58:48.624Z,8.33
2018-10-16T13:01:17.043Z,8.27
2018-10-16T13:03:45.554Z,7.03
2018-10-16T13:06:13.908Z,7.63
2018-10-16T13:08:42.310Z,7.73
2018-10-16T13:11:10.784Z,6.90
2018-10-16T13:13:39.221Z,7.30
2018-10-16T13:16:07.676Z,7.23
2018-10-16T13:18:36.229Z,7.27
2018-10-16T13:21:05.056Z,7.40
2018-10-16T13:23:33.559Z,7.93
2018-10-16T13:26:01.947Z,7.30
2018-10-16T13:28:30.782Z,8.47
2018-10-16T13:30:59.123Z,9.00
2018-10-16T13:33:27.387Z,8.80
2018-10-16T13:35:55.824Z,8.30
2018-10-16T13:38:24.084Z,8.97
2018-10-16T13:40:52.575Z,7.90
2018-10-16T13:43:20.849Z,7.90
2018-10-16T13:45:49.179Z,8.00
2018-10-16T13:48:17.432Z,8.37
2018-10-16T13:50:45.746Z,8.27
2018-10-16T13:53:14.010Z,8.00
2018-10-16T13:55:42.322Z,8.20
2018-10-16T13:58:10.693Z,8.00
2018-10-16T14:00:38.880Z,8.47
2018-10-16T14:03:07.165Z,7.60
2018-10-16T14:05:35.673Z,7.70
2018-10-16T14:08:04.023Z,7.50
2018-10-16T14:10:32.224Z,9.00
2018-10-16T14:13:00.527Z,8.33
2018-10-16T14:15:28.876Z,7.90
2018-10-16T14:17:57.311Z,7.33
2018-10-16T14:20:25.767Z,7.40
2018-10-16T14:22:54.125Z,7.47
2018-10-16T14:25:22.423Z,7.20
2018-10-16T14:27:50.842Z,7.40
2018-10-16T14:30:19.047Z,7.60
2018-10-16T14:32:47.317Z,7.20
2018-10-16T14:35:15.764Z,8.47
2018-10-16T14:37:44.036Z,7.13
2018-10-16T14:40:14.006Z,7.50
2018-10-16T14:42:42.503Z,7.47
2018-10-16T14:45:11.717Z,7.13
2018-10-16T14:47:40.167Z,7.77
2018-10-16T14:50:09.442Z,8.10
2018-10-16T14:52:37.718Z,7.60
2018-10-16T14:55:06.426Z,6.93
2018-10-16T14:57:35.075Z,7.50
2018-10-16T15:00:03.806Z,7.23
2018-10-16T15:02:32.303Z,7.80
2018-10-16T15:05:01.885Z,7.27
2018-10-16T15:07:30.301Z,6.80
2018-10-16T15:09:58.901Z,7.43
2018-10-16T15:12:33.201Z,8.07
2018-10-16T15:15:02.694Z,6.93
2018-10-16T15:17:32.140Z,8.63
2018-10-16T15:20:00.763Z,7.63
2018-10-16T15:22:29.311Z,7.03
2018-10-16T15:24:58.246Z,7.63
2018-10-16T15:27:26.521Z,8.20
2018-10-16T15:29:54.919Z,7.07
2018-10-16T15:32:23.406Z,7.17
2018-10-16T15:34:51.866Z,7.80
2018-10-16T15:37:20.181Z,7.90
2018-10-16T15:39:48.553Z,8.47
2018-10-16T15:42:16.953Z,9.33
2018-10-16T15:44:45.275Z,7.80
2018-10-16T15:47:13.720Z,8.97
2018-10-16T15:49:42.228Z,8.40
2018-10-16T15:52:10.694Z,8.77
2018-10-16T15:54:39.090Z,8.30
2018-10-16T15:57:07.463Z,9.60
2018-10-16T15:59:35.775Z,8.50
2018-10-16T16:02:04.152Z,9.97
2018-10-16T16:04:32.510Z,9.07
2018-10-16T16:07:00.900Z,9.23
2018-10-16T16:09:29.334Z,8.60
2018-10-16T16:11:57.640Z,9.23
2018-10-16T16:14:26.116Z,8.77
2018-10-16T16:16:54.588Z,9.20
2018-10-16T16:19:22.985Z,8.70
2018-10-16T16:21:51.576Z,9.17
2018-10-16T16:24:20.036Z,8.97
2018-10-16T16:26:48.688Z,9.10
2018-10-16T16:29:17.010Z,11.03
2018-10-16T16:31:45.341Z,9.30
2018-10-16T16:34:13.923Z,9.53
2018-10-16T16:36:42.319Z,10.07
2018-10-16T16:39:12.711Z,10.20
2018-10-16T16:41:41.116Z,10.03
2018-10-16T16:44:09.599Z,9.33
2018-10-16T16:46:38.162Z,10.10
2018-10-16T16:49:06.819Z,10.50
2018-10-16T16:51:35.125Z,9.00
2018-10-16T16:54:03.408Z,10.00
2018-10-16T16:56:31.806Z,9.93
2018-10-16T16:59:00.192Z,10.60
2018-10-16T17:01:28.668Z,9.43
2018-10-16T17:03:56.965Z,9.20
2018-10-16T17:06:26.026Z,9.37
2018-10-16T17:08:54.633Z,8.93
2018-10-16T17:11:23.006Z,10.77
2018-10-16T17:13:51.336Z,9.60
2018-10-16T17:16:19.923Z,9.57
2018-10-16T17:18:48.259Z,8.77
2018-10-16T17:21:16.847Z,9.70
2018-10-16T17:23:45.084Z,9.00
2018-10-16T17:26:13.835Z,9.70
2018-10-16T17:28:41.845Z,9.80
2018-10-16T17:31:10.332Z,9.47
2018-10-16T17:33:38.829Z,10.20
2018-10-16T17:36:07.219Z,10.10
2018-10-16T17:38:35.609Z,9.33
2018-10-16T17:41:04.005Z,9.00
2018-10-16T17:43:32.436Z,9.37
2018-10-16T17:46:00.851Z,10.10
2018-10-16T17:48:29.437Z,10.47
2018-10-16T17:50:57.916Z,10.13
2018-10-16T17:53:31.663Z,9.40
2018-10-16T17:56:00.199Z,10.53
2018-10-16T17:58:28.627Z,10.20
2018-10-16T18:00:57.094Z,10.90
2018-10-16T18:03:25.448Z,10.00
2018-10-16T18:05:54.056Z,10.63
2018-10-16T18:08:22.461Z,12.10
2018-10-16T18:10:50.773Z,10.43
2018-10-16T18:13:19.236Z,11.10
2018-10-16T18:15:47.533Z,11.20
2018-10-16T18:18:15.880Z,11.13
2018-10-16T18:20:44.159Z,9.80
2018-10-16T18:23:12.457Z,10.60
2018-10-16T18:25:40.808Z,10.50
2018-10-16T18:28:09.079Z,9.83
2018-10-16T18:30:37.614Z,10.27
2018-10-16T18:33:07.029Z,11.17
2018-10-16T18:35:35.418Z,10.93
2018-10-16T18:38:03.798Z,10.70
2018-10-16T18:40:32.215Z,10.73
2018-10-16T18:43:00.534Z,10.77
2018-10-16T18:45:28.863Z,10.70
2018-10-16T18:47:57.286Z,11.13
2018-10-16T18:50:25.538Z,11.00
2018-10-16T18:52:53.949Z,9.87
2018-10-16T18:55:22.206Z,10.90
2018-10-16T18:57:50.560Z,11.53
2018-10-16T19:00:19.643Z,11.67
2018-10-16T19:02:48.464Z,11.50
2018-10-16T19:05:16.921Z,14.40
2018-10-16T19:07:45.275Z,12.20
2018-10-16T19:10:13.674Z,11.20
2018-10-16T19:12:42.433Z,11.33
2018-10-16T19:15:13.276Z,12.57
2018-10-16T19:17:42.655Z,13.20
2018-10-16T19:20:12.709Z,12.10
2018-10-16T19:22:41.585Z,11.00
2018-10-16T19:25:10.847Z,13.93
2018-10-16T19:27:39.336Z,12.53
2018-10-16T19:30:11.895Z,13.30
2018-10-16T19:32:40.237Z,13.23
2018-10-16T19:35:09.691Z,12.67
2018-10-16T19:37:38.020Z,12.47
2018-10-16T19:40:06.660Z,12.77
2018-10-16T19:42:35.238Z,12.00
2018-10-16T19:45:04.493Z,13.00
2018-10-16T19:47:32.870Z,13.40
2018-10-16T19:50:03.454Z,13.27
2018-10-16T19:52:37.173Z,12.90
2018-10-16T19:55:05.928Z,14.90
2018-10-16T19:57:35.204Z,14.47
2018-10-16T20:00:05.189Z,14.07
2018-10-16T20:02:33.572Z,13.37
2018-10-16T20:05:02.995Z,12.90
2018-10-16T20:07:31.311Z,12.43
2018-10-16T20:09:59.569Z,13.37
2018-10-16T20:12:27.851Z,13.50
2018-10-16T20:14:56.220Z,13.00
2018-10-16T20:17:24.843Z,12.37
2018-10-16T20:19:53.084Z,12.67
2018-10-16T20:22:22.166Z,12.10
2018-10-16T20:24:51.425Z,12.07
2018-10-16T20:27:19.597Z,12.87
2018-10-16T20:29:47.956Z,12.03
2018-10-16T20:32:16.355Z,13.57
2018-10-16T20:34:44.684Z,13.73
2018-10-16T20:37:13.131Z,14.57
2018-10-16T20:39:41.359Z,13.37
2018-10-16T20:42:09.888Z,14.30
2018-10-16T20:44:38.772Z,14.00
2018-10-16T20:47:07.373Z,15.30
2018-10-16T20:49:36.428Z,13.30
2018-10-16T20:52:05.680Z,13.70
2018-10-16T20:54:34.007Z,13.87
2018-10-16T20:57:02.307Z,13.80
2018-10-16T20:59:30.588Z,14.30
2018-10-16T21:01:58.915Z,14.07
2018-10-16T21:04:27.374Z,14.40
2018-10-16T21:06:55.864Z,13.90
2018-10-16T21:09:23.941Z,14.93
2018-10-16T21:11:52.255Z,13.10
2018-10-16T21:14:20.618Z,13.93
2018-10-16T21:16:48.952Z,13.50
2018-10-16T21:19:17.395Z,13.23
2018-10-16T21:21:45.657Z,13.67
2018-10-16T21:24:13.963Z,13.93
2018-10-16T21:26:42.425Z,16.40
2018-10-16T21:29:10.985Z,14.20
2018-10-16T21:31:39.274Z,15.33
2018-10-16T21:35:36.828Z,16.23
2018-10-16T21:38:05.174Z,15.17
2018-10-16T21:40:33.633Z,14.40
2018-10-16T21:43:02.036Z,15.93
2018-10-16T21:45:30.331Z,14.20
2018-10-16T21:47:58.618Z,15.03
2018-10-16T21:50:26.889Z,17.30
2018-10-16T21:52:55.244Z,16.47
2018-10-16T21:55:23.557Z,16.23
2018-10-16T21:57:51.853Z,16.30
2018-10-16T22:00:25.504Z,16.00
2018-10-16T22:02:53.884Z,17.03
2018-10-16T22:05:23.611Z,15.67
2018-10-16T22:07:53.659Z,16.07
2018-10-16T22:10:22.533Z,15.87
2018-10-16T22:12:51.205Z,16.10
2018-10-16T22:15:20.464Z,14.83
2018-10-16T22:17:49.026Z,16.00
2018-10-16T22:20:17.381Z,17.53
2018-10-16T22:22:46.629Z,16.13
2018-10-16T22:25:15.541Z,15.17
2018-10-16T22:27:43.874Z,16.40
2018-10-16T22:30:12.187Z,14.77
2018-10-16T22:32:40.586Z,15.77
2018-10-16T22:35:10.251Z,17.47
2018-10-16T22:37:38.511Z,16.60
2018-10-16T22:40:08.111Z,17.00
2018-10-16T22:42:36.632Z,16.50
2018-10-16T22:45:05.893Z,17.20
2018-10-16T22:47:34.229Z,17.30
2018-10-16T22:50:02.602Z,17.50
2018-10-16T22:52:31.606Z,18.20
2018-10-16T22:54:59.938Z,16.03
2018-10-16T22:57:28.289Z,16.87
2018-10-16T22:59:56.628Z,16.03
2018-10-16T23:02:24.884Z,16.43
2018-10-16T23:04:53.375Z,15.90
2018-10-16T23:07:21.713Z,17.33
2018-10-16T23:09:49.975Z,17.13
2018-10-16T23:12:18.435Z,18.30
2018-10-16T23:14:46.753Z,17.37
2018-10-16T23:17:15.212Z,17.70
2018-10-16T23:19:43.478Z,17.50
2018-10-16T23:22:11.807Z,17.50
2018-10-16T23:24:40.093Z,16.77
2018-10-16T23:27:08.380Z,18.10
2018-10-16T23:29:37.274Z,17.47
2018-10-16T23:32:06.554Z,19.17
2018-10-16T23:34:34.835Z,18.10
2018-10-16T23:37:03.460Z,18.50
2018-10-16T23:39:31.688Z,17.80
2018-10-16T23:41:59.945Z,17.30
2018-10-16T23:44:28.378Z,17.63
2018-10-16T23:46:56.762Z,17.53
2018-10-16T23:49:25.013Z,16.93
2018-10-16T23:51:53.755Z,18.60
2018-10-16T23:54:22.086Z,17.43
2018-10-16T23:56:50.409Z,16.63
2018-10-16T23:59:18.749Z,17.70
